createdAt,value
2019-03-29T00:00:33.178Z,77.61
2019-03-29T00:03:03.110Z,76.87
2019-03-29T00:05:33.027Z,76.87
2019-03-29T00:08:03.304Z,76.88
2019-03-29T00:10:33.323Z,76.88
2019-03-29T00:13:03.556Z,76.23
2019-03-29T00:15:34.123Z,76.23
2019-03-29T00:18:04.247Z,75.56
2019-03-29T00:20:34.182Z,75.46
2019-03-29T00:23:04.216Z,75.46
2019-03-29T00:25:34.459Z,75.82
2019-03-29T00:28:04.380Z,75.20
2019-03-29T00:30:34.402Z,74.95
2019-03-29T00:33:04.436Z,74.95
2019-03-29T00:35:34.460Z,74.46
2019-03-29T00:38:04.851Z,74.46
2019-03-29T00:40:35.266Z,73.91
2019-03-29T00:43:05.317Z,73.91
2019-03-29T00:45:35.348Z,73.91
2019-03-29T00:48:05.464Z,73.82
2019-03-29T00:50:35.401Z,74.40
2019-03-29T00:53:05.360Z,74.40
2019-03-29T00:55:35.500Z,74.96
2019-03-29T00:58:05.416Z,76.28
2019-03-29T01:00:35.367Z,76.69
2019-03-29T01:03:05.363Z,76.95
2019-03-29T01:05:35.577Z,76.92
2019-03-29T01:08:08.019Z,76.94
2019-03-29T01:10:37.648Z,76.94
2019-03-29T01:13:07.779Z,77.07
2019-03-29T01:15:37.889Z,77.38
2019-03-29T01:18:07.845Z,78.09
2019-03-29T01:20:37.758Z,78.09
2019-03-29T01:23:07.985Z,78.01
2019-03-29T01:25:37.914Z,78.01
2019-03-29T01:28:07.941Z,78.18
2019-03-29T01:30:37.939Z,78.51
2019-03-29T01:33:07.920Z,79.15
2019-03-29T01:35:37.949Z,79.32
2019-03-29T01:38:21.057Z,79.05
2019-03-29T01:40:39.748Z,78.76
2019-03-29T01:43:10.097Z,78.76
2019-03-29T01:45:40.149Z,78.69
2019-03-29T01:48:10.110Z,78.96
2019-03-29T01:50:40.233Z,78.40
2019-03-29T01:53:10.184Z,78.53
2019-03-29T01:55:40.319Z,78.21
2019-03-29T01:58:10.473Z,77.86
2019-03-29T02:00:40.865Z,78.36
2019-03-29T02:03:10.908Z,78.45
2019-03-29T02:05:40.929Z,78.31
2019-03-29T02:08:10.863Z,78.05
2019-03-29T02:10:41.038Z,78.43
2019-03-29T02:13:11.167Z,78.58
2019-03-29T02:15:41.301Z,78.14
2019-03-29T02:18:11.223Z,78.46
2019-03-29T02:20:41.252Z,78.59
2019-03-29T02:23:11.441Z,78.69
2019-03-29T02:25:42.456Z,78.41
2019-03-29T02:28:13.014Z,78.66
2019-03-29T02:30:42.929Z,78.59
2019-03-29T02:33:12.984Z,78.22
2019-03-29T02:35:42.989Z,78.62
2019-03-29T02:38:13.212Z,79.11
2019-03-29T02:40:43.217Z,78.62
2019-03-29T02:43:13.378Z,78.44
2019-03-29T02:45:43.438Z,78.23
2019-03-29T02:48:13.398Z,78.24
2019-03-29T02:50:43.415Z,78.25
2019-03-29T02:53:13.352Z,78.01
2019-03-29T02:55:43.358Z,78.68
2019-03-29T02:58:13.347Z,78.24
2019-03-29T03:00:43.496Z,78.92
2019-03-29T03:03:13.686Z,78.42
2019-03-29T03:05:43.640Z,78.40
2019-03-29T03:08:13.584Z,78.58
2019-03-29T03:10:43.588Z,78.92
2019-03-29T03:13:13.509Z,79.12
2019-03-29T03:15:43.467Z,78.97
2019-03-29T03:18:13.674Z,78.88
2019-03-29T03:20:43.609Z,78.22
2019-03-29T03:23:13.648Z,77.99
2019-03-29T03:25:43.667Z,78.25
2019-03-29T03:28:13.796Z,77.71
2019-03-29T03:30:43.923Z,77.22
2019-03-29T03:33:14.286Z,76.63
2019-03-29T03:35:44.240Z,76.42
2019-03-29T03:38:14.664Z,76.42
2019-03-29T03:40:44.708Z,76.50
2019-03-29T03:43:14.631Z,76.60
2019-03-29T03:45:44.683Z,76.06
2019-03-29T03:48:14.710Z,76.06
2019-03-29T03:50:45.129Z,76.19
2019-03-29T03:53:15.158Z,75.72
2019-03-29T03:55:45.266Z,75.72
2019-03-29T03:58:16.821Z,76.34
2019-03-29T04:00:58.264Z,77.25
2019-03-29T04:03:28.878Z,78.22
2019-03-29T04:05:59.521Z,78.22
2019-03-29T04:08:29.619Z,78.21
2019-03-29T04:10:59.651Z,78.44
2019-03-29T04:13:30.200Z,78.44
2019-03-29T04:16:00.177Z,78.41
2019-03-29T04:18:30.297Z,77.56
2019-03-29T04:21:00.457Z,77.56
2019-03-29T04:23:30.942Z,77.64
2019-03-29T04:26:00.977Z,77.58
2019-03-29T04:28:30.981Z,77.58
2019-03-29T04:31:01.230Z,78.02
2019-03-29T04:33:31.259Z,78.02
2019-03-29T04:36:01.234Z,78.59
2019-03-29T04:38:31.378Z,79.30
2019-03-29T04:41:01.382Z,79.30
2019-03-29T04:43:31.336Z,79.12
2019-03-29T04:46:01.320Z,79.06
2019-03-29T04:48:31.434Z,79.04
2019-03-29T04:51:01.438Z,79.04
2019-03-29T04:53:31.374Z,78.68
2019-03-29T04:56:01.337Z,78.59
2019-03-29T04:58:31.409Z,78.59
2019-03-29T05:01:01.341Z,78.60
2019-03-29T05:03:31.243Z,78.40
2019-03-29T05:06:01.194Z,77.63
2019-03-29T05:08:31.220Z,77.63
2019-03-29T05:11:01.345Z,77.48
2019-03-29T05:13:31.424Z,77.19
2019-03-29T05:16:01.348Z,77.79
2019-03-29T05:18:31.365Z,77.79
2019-03-29T05:21:01.346Z,77.06
2019-03-29T05:23:31.400Z,76.95
2019-03-29T05:26:01.421Z,76.36
2019-03-29T05:28:31.412Z,76.36
2019-03-29T05:31:01.340Z,76.02
2019-03-29T05:33:31.576Z,76.05
2019-03-29T05:36:01.622Z,77.08
2019-03-29T05:38:31.688Z,76.10
2019-03-29T05:41:01.696Z,76.10
2019-03-29T05:43:31.943Z,76.60
2019-03-29T05:46:01.940Z,76.10
2019-03-29T05:48:32.073Z,76.54
2019-03-29T05:51:02.181Z,76.54
2019-03-29T05:53:32.121Z,76.64
2019-03-29T05:56:02.042Z,76.98
2019-03-29T05:58:32.042Z,76.79
2019-03-29T06:01:02.103Z,76.49
2019-03-29T06:03:32.062Z,76.49
2019-03-29T06:06:02.202Z,77.51
2019-03-29T06:08:32.112Z,76.98
2019-03-29T06:11:02.076Z,76.98
2019-03-29T06:13:32.201Z,77.54
2019-03-29T06:16:02.114Z,77.54
2019-03-29T06:18:32.100Z,78.30
2019-03-29T06:21:02.188Z,77.91
2019-03-29T06:23:32.172Z,76.54
2019-03-29T06:26:02.230Z,76.54
2019-03-29T06:28:32.738Z,76.29
2019-03-29T06:31:02.686Z,77.11
2019-03-29T06:33:32.747Z,77.37
2019-03-29T06:36:04.715Z,77.49
2019-03-29T06:38:36.872Z,76.13
2019-03-29T06:41:07.123Z,77.57
2019-03-29T06:43:37.098Z,77.57
2019-03-29T06:46:07.397Z,77.05
2019-03-29T06:48:37.474Z,77.30
2019-03-29T06:51:07.445Z,76.52
2019-03-29T06:53:37.480Z,75.79
2019-03-29T06:56:07.550Z,75.79
2019-03-29T06:58:37.675Z,75.10
2019-03-29T07:01:07.893Z,74.50
2019-03-29T07:03:38.127Z,74.35
2019-03-29T07:06:08.358Z,73.46
2019-03-29T07:08:38.465Z,73.17
2019-03-29T07:11:17.183Z,72.66
2019-03-29T07:13:40.271Z,72.25
2019-03-29T07:16:10.464Z,72.05
2019-03-29T07:18:40.490Z,71.39
2019-03-29T07:21:20.939Z,70.66
2019-03-29T07:23:42.293Z,70.44
2019-03-29T07:26:12.299Z,70.43
2019-03-29T07:28:43.204Z,70.29
2019-03-29T07:31:13.230Z,69.45
2019-03-29T07:33:43.399Z,67.65
2019-03-29T07:36:13.321Z,66.51
2019-03-29T07:38:43.240Z,66.41
2019-03-29T07:41:13.323Z,65.68
2019-03-29T07:43:43.274Z,66.51
2019-03-29T07:46:13.221Z,65.41
2019-03-29T07:48:43.146Z,65.22
2019-03-29T07:51:13.224Z,65.02
2019-03-29T07:53:44.979Z,65.75
2019-03-29T07:56:14.866Z,66.22
2019-03-29T07:58:44.986Z,65.24
2019-03-29T08:01:14.952Z,65.21
2019-03-29T08:03:45.030Z,64.12
2019-03-29T08:06:15.069Z,63.92
2019-03-29T08:08:45.097Z,63.74
2019-03-29T08:11:25.424Z,62.56
2019-03-29T08:13:46.827Z,62.34
2019-03-29T08:16:16.936Z,63.00
2019-03-29T08:18:46.894Z,62.40
2019-03-29T08:21:16.920Z,60.67
2019-03-29T08:23:47.682Z,60.64
2019-03-29T08:26:17.960Z,60.26
2019-03-29T08:28:47.905Z,60.56
2019-03-29T08:31:17.939Z,59.89
2019-03-29T08:33:47.917Z,59.11
2019-03-29T08:36:18.148Z,58.75
2019-03-29T08:38:48.196Z,57.91
2019-03-29T08:41:18.143Z,57.04
2019-03-29T08:43:48.275Z,57.57
2019-03-29T08:46:18.312Z,57.40
2019-03-29T08:48:48.403Z,56.75
2019-03-29T08:51:18.445Z,57.33
2019-03-29T08:53:48.469Z,56.32
2019-03-29T08:56:18.404Z,55.52
2019-03-29T08:58:48.339Z,55.61
2019-03-29T09:01:19.498Z,54.33
2019-03-29T09:04:01.469Z,53.24
2019-03-29T09:06:21.661Z,53.82
2019-03-29T09:08:52.717Z,53.81
2019-03-29T09:11:22.686Z,53.10
2019-03-29T09:13:52.737Z,52.43
2019-03-29T09:16:22.658Z,52.11
2019-03-29T09:18:52.730Z,51.42
2019-03-29T09:21:22.764Z,51.09
2019-03-29T09:23:52.742Z,50.49
2019-03-29T09:26:22.845Z,49.31
2019-03-29T09:28:52.936Z,50.13
2019-03-29T09:31:22.859Z,50.55
2019-03-29T09:33:53.317Z,50.70
2019-03-29T09:36:23.702Z,50.83
2019-03-29T09:38:53.724Z,50.55
2019-03-29T09:41:23.815Z,50.81
2019-03-29T09:43:54.637Z,50.54
2019-03-29T09:46:24.790Z,51.73
2019-03-29T09:48:54.733Z,51.55
2019-03-29T09:51:24.772Z,50.69
2019-03-29T09:53:57.768Z,50.26
2019-03-29T09:56:37.992Z,49.84
2019-03-29T09:58:58.203Z,47.96
2019-03-29T10:01:28.388Z,47.84
2019-03-29T10:03:58.468Z,47.94
2019-03-29T10:06:28.596Z,48.37
2019-03-29T10:08:58.714Z,48.06
2019-03-29T10:11:28.751Z,48.49
2019-03-29T10:13:59.130Z,48.01
2019-03-29T10:16:29.110Z,48.58
2019-03-29T10:18:59.036Z,48.17
2019-03-29T10:21:29.052Z,49.20
2019-03-29T10:23:59.014Z,48.40
2019-03-29T10:26:28.937Z,48.69
2019-03-29T10:28:58.857Z,48.03
2019-03-29T10:31:32.436Z,47.41
2019-03-29T10:34:00.534Z,47.70
2019-03-29T10:36:31.384Z,47.12
2019-03-29T10:39:01.826Z,47.06
2019-03-29T10:41:34.573Z,46.84
2019-03-29T10:44:04.418Z,46.22
2019-03-29T10:46:34.424Z,47.01
2019-03-29T10:49:04.408Z,45.95
2019-03-29T10:51:34.450Z,45.84
2019-03-29T10:54:04.743Z,45.22
2019-03-29T10:56:34.874Z,47.23
2019-03-29T10:59:04.932Z,46.63
2019-03-29T11:01:34.997Z,45.09
2019-03-29T11:04:04.948Z,45.25
2019-03-29T11:06:35.120Z,45.60
2019-03-29T11:09:07.290Z,44.89
2019-03-29T11:11:37.544Z,45.24
2019-03-29T11:14:08.068Z,43.61
2019-03-29T11:16:37.999Z,43.80
2019-03-29T11:19:07.926Z,44.54
2019-03-29T11:21:37.862Z,43.99
2019-03-29T11:24:09.354Z,45.20
2019-03-29T11:26:39.528Z,44.36
2019-03-29T11:29:09.461Z,43.91
2019-03-29T11:31:39.511Z,44.00
2019-03-29T11:34:09.515Z,43.42
2019-03-29T11:36:39.418Z,43.68
2019-03-29T11:39:10.039Z,43.17
2019-03-29T11:41:40.016Z,42.29
2019-03-29T11:44:10.057Z,41.90
2019-03-29T11:46:40.359Z,42.43
2019-03-29T11:49:10.591Z,42.54
2019-03-29T11:51:40.696Z,42.19
2019-03-29T11:54:10.837Z,43.46
2019-03-29T11:56:40.768Z,41.41
2019-03-29T11:59:10.744Z,41.41
2019-03-29T12:01:40.696Z,41.55
2019-03-29T12:04:10.633Z,40.83
2019-03-29T12:06:40.662Z,40.88
2019-03-29T12:09:10.922Z,38.73
2019-03-29T12:11:40.968Z,38.58
2019-03-29T12:14:11.177Z,38.54
2019-03-29T12:16:41.097Z,37.83
2019-03-29T12:21:39.839Z,35.19
2019-03-29T12:24:09.883Z,33.79
2019-03-29T12:26:39.805Z,32.31
2019-03-29T12:29:09.860Z,31.75
2019-03-29T12:31:39.855Z,31.22
2019-03-29T12:34:10.154Z,31.87
2019-03-29T12:36:40.092Z,30.53
2019-03-29T12:39:10.062Z,30.71
2019-03-29T12:41:40.117Z,30.27
2019-03-29T12:44:10.101Z,30.55
2019-03-29T12:46:40.219Z,28.96
2019-03-29T12:49:10.383Z,29.52
2019-03-29T12:51:40.365Z,29.95
2019-03-29T12:54:12.147Z,28.32
2019-03-29T12:56:42.292Z,29.20
2019-03-29T12:59:12.433Z,27.47
2019-03-29T13:01:42.427Z,27.54
2019-03-29T13:04:12.389Z,28.27
2019-03-29T13:06:42.360Z,26.68
2019-03-29T13:09:12.492Z,26.16
2019-03-29T13:11:42.404Z,26.25
2019-03-29T13:14:12.319Z,26.62
2019-03-29T13:16:42.761Z,25.46
2019-03-29T13:19:12.665Z,25.77
2019-03-29T13:21:42.604Z,26.51
2019-03-29T13:24:15.737Z,24.41
2019-03-29T13:26:44.405Z,23.28
2019-03-29T13:29:14.382Z,22.88
2019-03-29T13:31:44.409Z,24.88
2019-03-29T13:34:14.756Z,24.26
2019-03-29T13:36:45.014Z,24.12
2019-03-29T13:39:15.365Z,23.58
2019-03-29T13:41:45.389Z,23.32
2019-03-29T13:44:23.686Z,23.63
2019-03-29T13:46:47.646Z,22.91
2019-03-29T13:49:17.560Z,22.51
2019-03-29T13:51:47.525Z,23.28
2019-03-29T13:54:17.607Z,22.76
2019-03-29T13:56:47.652Z,21.75
2019-03-29T13:59:17.554Z,21.91
2019-03-29T14:01:47.585Z,21.36
2019-03-29T14:04:17.584Z,21.37
2019-03-29T14:06:47.619Z,21.79
2019-03-29T14:09:17.620Z,20.93
2019-03-29T14:11:47.734Z,20.69
2019-03-29T14:14:17.803Z,21.25
2019-03-29T14:16:47.693Z,20.99
2019-03-29T14:19:17.890Z,21.31
2019-03-29T14:21:48.065Z,22.56
2019-03-29T14:24:18.019Z,24.32
2019-03-29T14:26:48.086Z,26.09
2019-03-29T14:29:18.178Z,27.56
2019-03-29T14:31:48.924Z,28.86
2019-03-29T14:34:18.923Z,29.23
2019-03-29T14:36:49.076Z,30.89
2019-03-29T14:39:19.056Z,31.24
2019-03-29T14:41:49.059Z,32.15
2019-03-29T14:44:19.042Z,33.53
2019-03-29T14:46:49.088Z,34.08
2019-03-29T14:49:19.154Z,33.77
2019-03-29T14:51:49.186Z,34.81
2019-03-29T14:54:19.203Z,34.58
2019-03-29T14:56:49.368Z,34.10
2019-03-29T14:59:19.586Z,33.61
2019-03-29T15:01:49.845Z,34.34
2019-03-29T15:04:20.063Z,34.83
2019-03-29T15:06:50.192Z,35.08
2019-03-29T15:09:20.688Z,35.50
2019-03-29T15:11:50.715Z,35.17
2019-03-29T15:14:23.196Z,35.11
2019-03-29T15:16:52.612Z,35.13
2019-03-29T15:19:22.742Z,34.94
2019-03-29T15:21:53.243Z,36.28
2019-03-29T15:24:23.393Z,35.80
2019-03-29T15:26:53.380Z,35.45
2019-03-29T15:29:23.592Z,36.35
2019-03-29T15:31:53.528Z,36.14
2019-03-29T15:34:23.579Z,35.58
2019-03-29T15:36:53.532Z,35.93
2019-03-29T15:39:23.698Z,37.10
2019-03-29T15:41:54.748Z,36.75
2019-03-29T15:44:27.049Z,36.89
2019-03-29T15:46:59.063Z,36.78
2019-03-29T15:49:31.065Z,36.98
2019-03-29T15:52:02.435Z,36.34
2019-03-29T15:54:33.807Z,37.30
2019-03-29T15:57:05.671Z,37.43
2019-03-29T15:59:37.305Z,37.96
2019-03-29T16:02:08.776Z,38.27
2019-03-29T16:04:40.255Z,37.86
2019-03-29T16:07:11.877Z,37.05
2019-03-29T16:09:43.512Z,36.60
2019-03-29T16:12:17.805Z,36.61
2019-03-29T16:14:50.715Z,36.45
2019-03-29T16:17:21.495Z,37.02
2019-03-29T16:19:51.837Z,37.11
2019-03-29T16:22:21.981Z,37.32
2019-03-29T16:24:52.269Z,37.47
2019-03-29T16:27:24.918Z,37.94
2019-03-29T16:29:54.084Z,37.55
2019-03-29T16:32:24.136Z,37.42
2019-03-29T16:34:54.694Z,37.45
2019-03-29T16:37:24.674Z,37.97
2019-03-29T16:39:54.639Z,37.47
2019-03-29T16:42:24.697Z,37.73
2019-03-29T16:44:54.790Z,37.30
2019-03-29T16:47:24.937Z,37.93
2019-03-29T16:49:55.062Z,38.37
2019-03-29T16:52:25.433Z,37.81
2019-03-29T16:54:55.576Z,38.29
2019-03-29T16:57:25.746Z,38.10
2019-03-29T16:59:55.723Z,38.92
2019-03-29T17:02:25.907Z,38.31
2019-03-29T17:04:55.837Z,39.21
2019-03-29T17:07:25.785Z,38.76
2019-03-29T17:09:55.785Z,38.91
2019-03-29T17:12:25.736Z,38.99
2019-03-29T17:14:55.869Z,39.24
2019-03-29T17:17:25.895Z,39.34
2019-03-29T17:19:56.131Z,39.65
2019-03-29T17:22:26.105Z,39.58
2019-03-29T17:24:57.384Z,40.03
2019-03-29T17:27:28.322Z,39.97
2019-03-29T17:29:58.234Z,40.52
2019-03-29T17:32:28.247Z,40.88
2019-03-29T17:34:58.328Z,41.33
2019-03-29T17:37:28.431Z,41.49
2019-03-29T17:39:58.670Z,41.59
2019-03-29T17:42:28.663Z,42.10
2019-03-29T17:44:59.150Z,42.34
2019-03-29T17:47:29.134Z,43.01
2019-03-29T17:49:59.263Z,43.12
2019-03-29T17:52:29.354Z,43.01
2019-03-29T17:55:01.192Z,43.38
2019-03-29T17:57:31.255Z,43.50
2019-03-29T18:00:01.461Z,43.85
2019-03-29T18:02:31.661Z,44.05
2019-03-29T18:05:01.985Z,44.38
2019-03-29T18:07:31.937Z,44.58
2019-03-29T18:10:01.877Z,44.62
2019-03-29T18:12:32.140Z,44.95
2019-03-29T18:15:02.063Z,45.24
2019-03-29T18:17:32.092Z,45.37
2019-03-29T18:20:02.048Z,45.94
2019-03-29T18:22:32.423Z,45.94
2019-03-29T18:25:02.385Z,45.83
2019-03-29T18:27:32.592Z,46.13
2019-03-29T18:30:02.812Z,46.58
2019-03-29T18:32:33.424Z,46.86
2019-03-29T18:35:03.378Z,46.97
2019-03-29T18:37:33.960Z,47.29
2019-03-29T18:40:04.381Z,47.38
2019-03-29T18:42:34.767Z,47.92
2019-03-29T18:45:05.379Z,48.31
2019-03-29T18:47:35.605Z,48.53
2019-03-29T18:50:06.112Z,48.58
2019-03-29T18:52:36.076Z,48.83
2019-03-29T18:55:06.169Z,48.96
2019-03-29T18:57:36.767Z,49.37
2019-03-29T19:00:08.055Z,49.57
2019-03-29T19:02:38.604Z,49.82
2019-03-29T19:05:11.436Z,49.96
2019-03-29T19:07:41.373Z,50.79
2019-03-29T19:10:12.138Z,51.09
2019-03-29T19:12:42.324Z,50.95
2019-03-29T19:15:12.502Z,51.61
2019-03-29T19:17:42.569Z,51.99
2019-03-29T19:20:26.253Z,51.93
2019-03-29T19:22:44.564Z,52.26
2019-03-29T19:25:14.911Z,51.71
2019-03-29T19:27:45.133Z,52.10
2019-03-29T19:30:15.658Z,52.24
2019-03-29T19:32:45.706Z,52.60
2019-03-29T19:35:16.051Z,52.28
2019-03-29T19:37:46.194Z,52.10
2019-03-29T19:40:16.267Z,53.21
2019-03-29T19:42:46.292Z,54.06
2019-03-29T19:45:16.849Z,54.07
2019-03-29T19:47:46.762Z,54.23
2019-03-29T19:50:17.557Z,55.14
2019-03-29T19:52:47.904Z,55.16
2019-03-29T19:55:17.917Z,55.42
2019-03-29T19:57:47.789Z,55.05
2019-03-29T20:00:18.293Z,55.05
2019-03-29T20:02:48.637Z,55.96
2019-03-29T20:05:29.473Z,55.73
2019-03-29T20:07:59.529Z,55.56
2019-03-29T20:10:29.712Z,56.45
2019-03-29T20:12:59.768Z,56.30
2019-03-29T20:15:29.765Z,56.51
2019-03-29T20:17:59.793Z,56.27
2019-03-29T20:20:29.797Z,56.50
2019-03-29T20:22:59.945Z,57.41
2019-03-29T20:25:29.862Z,58.04
2019-03-29T20:27:59.845Z,57.29
2019-03-29T20:30:30.170Z,57.20
2019-03-29T20:33:00.203Z,57.01
2019-03-29T20:35:30.167Z,57.08
2019-03-29T20:38:00.432Z,57.41
2019-03-29T20:40:32.159Z,57.60
2019-03-29T20:43:02.313Z,57.83
2019-03-29T20:45:32.624Z,58.46
2019-03-29T20:48:02.586Z,58.95
2019-03-29T20:50:32.572Z,58.70
2019-03-29T20:53:02.611Z,59.00
2019-03-29T20:55:32.663Z,59.69
2019-03-29T20:58:02.714Z,59.88
2019-03-29T21:00:32.760Z,59.96
2019-03-29T21:03:02.880Z,60.42
2019-03-29T21:05:32.991Z,60.68
2019-03-29T21:08:03.685Z,60.48
2019-03-29T21:10:33.777Z,60.23
2019-03-29T21:13:07.095Z,60.26
2019-03-29T21:15:35.522Z,60.42
2019-03-29T21:18:05.495Z,60.88
2019-03-29T21:20:35.451Z,61.09
2019-03-29T21:23:05.385Z,60.97
2019-03-29T21:25:35.797Z,61.49
2019-03-29T21:28:05.931Z,61.50
2019-03-29T21:30:36.222Z,62.04
2019-03-29T21:33:06.369Z,62.16
2019-03-29T21:35:36.328Z,62.30
2019-03-29T21:38:06.512Z,62.16
2019-03-29T21:40:36.498Z,62.56
2019-03-29T21:43:06.796Z,62.77
2019-03-29T21:45:37.175Z,62.92
2019-03-29T21:48:27.419Z,63.05
2019-03-29T21:50:39.068Z,63.20
2019-03-29T21:53:09.175Z,63.15
2019-03-29T21:55:39.372Z,63.06
2019-03-29T21:58:09.303Z,62.88
2019-03-29T22:00:39.420Z,62.93
2019-03-29T22:03:09.480Z,62.92
2019-03-29T22:05:39.543Z,63.26
2019-03-29T22:08:09.606Z,63.78
2019-03-29T22:10:39.630Z,64.17
2019-03-29T22:13:10.002Z,63.77
2019-03-29T22:15:39.959Z,63.63
2019-03-29T22:18:09.909Z,64.27
2019-03-29T22:20:40.178Z,64.27
2019-03-29T22:23:10.412Z,64.34
2019-03-29T22:25:40.457Z,64.44
2019-03-29T22:28:10.436Z,64.59
2019-03-29T22:30:40.564Z,65.49
2019-03-29T22:33:10.501Z,65.72
2019-03-29T22:35:40.584Z,65.34
2019-03-29T22:38:10.617Z,64.48
2019-03-29T22:40:40.717Z,64.48
2019-03-29T22:43:10.968Z,64.98
2019-03-29T22:45:41.077Z,65.19
2019-03-29T22:48:11.211Z,65.55
2019-03-29T22:50:41.195Z,65.55
2019-03-29T22:53:11.141Z,65.61
2019-03-29T22:55:41.419Z,65.51
2019-03-29T22:58:11.328Z,65.51
2019-03-29T23:00:45.339Z,65.74
2019-03-29T23:03:15.877Z,66.05
2019-03-29T23:05:45.958Z,65.61
2019-03-29T23:08:15.988Z,65.86
2019-03-29T23:10:46.133Z,65.86
2019-03-29T23:13:16.162Z,66.41
2019-03-29T23:15:46.477Z,66.41
2019-03-29T23:18:16.429Z,66.43
2019-03-29T23:20:46.726Z,67.31
2019-03-29T23:23:16.908Z,67.31
2019-03-29T23:25:47.553Z,67.07
2019-03-29T23:28:17.937Z,67.23
2019-03-29T23:30:48.053Z,67.13
2019-03-29T23:33:18.083Z,67.13
2019-03-29T23:35:48.181Z,67.00
2019-03-29T23:38:18.215Z,67.00
2019-03-29T23:40:48.838Z,67.04
2019-03-29T23:43:18.854Z,67.41
2019-03-29T23:45:48.908Z,67.77
2019-03-29T23:48:18.973Z,67.79
2019-03-29T23:50:49.045Z,67.79
2019-03-29T23:53:18.986Z,67.62
2019-03-29T23:55:48.975Z,67.89
2019-03-29T23:58:19.188Z,67.66
